Terminal Aerodrome Forecast
Issued by NWS

Current Version | Previous Version | Text Only | Print | Product List | Glossary On
Versions: 1 2 3 4 5 6 7 8 9 10 11 12 13 14 15 16 17 18 19 20 21 22 23 24 25 26 27
000
FTUS41 KBUF 242338 AAB
TAFJHW
TAF AMD
KJHW 242338Z 2500/2524 29007KT 1/2SM FG OVC003
     FM251300 27006KT 1SM BR OVC007
     FM251400 25006KT 3SM BR BKN007
     FM251700 21006KT P6SM BKN060
     FM252000 18005KT P6SM OVC020
      AMD LTD TO CLD VIS AND WIND=

USA.gov is the U.S. government's official web portal to all federal, state and local government web resources and services.